createdAt,value
2023-03-07T00:02:09.728Z,28.27
2023-03-07T00:04:36.939Z,33.75
2023-03-07T00:07:04.182Z,34.58
2023-03-07T00:09:31.381Z,32.28
2023-03-07T00:11:58.582Z,34.00
2023-03-07T00:14:26.384Z,31.00
2023-03-07T00:16:53.459Z,34.35
2023-03-07T00:19:20.900Z,35.03
2023-03-07T00:21:48.031Z,33.13
2023-03-07T00:24:15.302Z,33.53
2023-03-07T00:26:42.397Z,35.90
2023-03-07T00:29:12.463Z,37.15
2023-03-07T00:31:39.746Z,35.22
2023-03-07T00:34:07.165Z,33.88
2023-03-07T00:36:34.405Z,34.25
2023-03-07T00:39:01.595Z,34.33
2023-03-07T00:41:30.053Z,35.75
2023-03-07T00:43:57.217Z,35.70
2023-03-07T00:46:45.458Z,33.85
2023-03-07T00:49:13.121Z,38.70
2023-03-07T00:51:40.253Z,32.47
2023-03-07T00:54:07.979Z,36.92
2023-03-07T00:56:36.089Z,38.35
2023-03-07T00:59:03.747Z,35.80
2023-03-07T01:01:31.647Z,33.78
2023-03-07T01:03:59.072Z,32.78
2023-03-07T01:06:30.449Z,36.75
2023-03-07T01:09:02.474Z,33.92
2023-03-07T01:11:31.426Z,39.83
2023-03-07T01:14:01.999Z,35.08
2023-03-07T01:16:34.209Z,32.25
2023-03-07T01:19:06.105Z,32.15
2023-03-07T01:21:40.595Z,30.33
2023-03-07T01:24:13.875Z,34.83
2023-03-07T01:26:44.260Z,33.58
2023-03-07T01:29:12.322Z,32.10
2023-03-07T01:31:39.703Z,31.38
2023-03-07T01:34:08.663Z,34.95
2023-03-07T01:36:38.023Z,28.95
2023-03-07T01:39:52.846Z,26.58
2023-03-07T01:45:14.251Z,30.55
2023-03-07T01:47:47.034Z,27.95
2023-03-07T01:50:18.621Z,30.50
2023-03-07T01:52:57.022Z,30.65
2023-03-07T01:55:32.900Z,30.27
2023-03-07T01:58:13.071Z,31.98
2023-03-07T02:00:42.972Z,30.17
2023-03-07T02:03:24.214Z,29.73
2023-03-07T02:05:59.891Z,29.35
2023-03-07T02:09:39.264Z,29.65
2023-03-07T02:16:40.307Z,31.70
2023-03-07T02:21:07.856Z,26.90
2023-03-07T02:25:02.686Z,29.15
2023-03-07T02:29:05.676Z,30.15
2023-03-07T02:43:44.772Z,31.73
2023-03-07T02:46:21.966Z,33.72
2023-03-07T02:58:21.562Z,31.42
2023-03-07T03:05:00.094Z,34.45
2023-03-07T03:12:01.372Z,28.92
2023-03-07T03:18:11.733Z,33.03
2023-03-07T03:20:42.776Z,31.05
2023-03-07T03:23:13.279Z,29.45
2023-03-07T03:25:40.571Z,25.65
2023-03-07T03:28:08.930Z,35.55
2023-03-07T03:30:36.727Z,23.45
2023-03-07T03:33:07.026Z,28.73
2023-03-07T03:45:15.143Z,27.17
2023-03-07T03:47:42.514Z,29.23
2023-03-07T03:50:11.208Z,27.88
2023-03-07T03:52:38.761Z,28.10
2023-03-07T03:55:06.589Z,29.50
2023-03-07T03:57:37.396Z,25.23
2023-03-07T04:00:09.582Z,24.45
2023-03-07T04:02:39.973Z,24.52
2023-03-07T04:05:11.029Z,26.30
2023-03-07T04:07:39.148Z,23.58
2023-03-07T04:10:07.128Z,24.15
2023-03-07T04:12:34.912Z,25.60
2023-03-07T04:15:02.038Z,28.65
2023-03-07T04:17:29.352Z,27.50
2023-03-07T04:19:56.616Z,25.05
2023-03-07T04:22:24.437Z,23.95
2023-03-07T04:24:51.929Z,27.88
2023-03-07T04:27:19.293Z,25.65
2023-03-07T04:29:46.462Z,24.83
2023-03-07T04:32:20.466Z,23.05
2023-03-07T04:34:48.982Z,23.90
2023-03-07T04:37:16.064Z,24.48
2023-03-07T04:39:46.813Z,24.08
2023-03-07T04:42:18.100Z,22.17
2023-03-07T04:44:46.538Z,22.23
2023-03-07T04:47:16.472Z,20.80
2023-03-07T04:49:43.800Z,27.15
2023-03-07T04:52:11.537Z,21.85
2023-03-07T04:54:40.852Z,24.05
2023-03-07T04:57:08.862Z,21.15
2023-03-07T04:59:39.277Z,24.63
2023-03-07T05:02:11.635Z,16.20
2023-03-07T05:04:42.057Z,22.00
2023-03-07T05:07:09.704Z,27.10
2023-03-07T05:09:37.296Z,24.48
2023-03-07T05:12:04.771Z,24.27
2023-03-07T05:14:32.005Z,24.70
2023-03-07T05:16:59.215Z,19.17
2023-03-07T05:19:27.012Z,17.65
2023-03-07T05:21:56.999Z,21.02
2023-03-07T05:24:24.291Z,21.00
2023-03-07T05:26:51.780Z,18.23
2023-03-07T05:29:18.913Z,14.93
2023-03-07T05:31:46.254Z,17.52
2023-03-07T05:34:17.921Z,23.20
2023-03-07T05:36:45.749Z,13.55
2023-03-07T05:39:14.499Z,21.23
2023-03-07T05:41:45.477Z,19.02
2023-03-07T05:44:13.952Z,14.75
2023-03-07T05:46:41.638Z,24.95
2023-03-07T05:49:09.536Z,23.65
2023-03-07T05:51:36.745Z,20.90
2023-03-07T05:58:32.516Z,25.50
2023-03-07T06:01:12.068Z,26.27
2023-03-07T06:07:44.133Z,23.48
2023-03-07T06:10:15.138Z,25.38
2023-03-07T06:13:19.490Z,25.45
2023-03-07T06:15:53.061Z,23.08
2023-03-07T06:19:15.069Z,19.73
2023-03-07T06:21:43.906Z,15.10
2023-03-07T06:24:11.268Z,20.80
2023-03-07T06:26:39.279Z,20.00
2023-03-07T06:34:03.466Z,21.23
2023-03-07T06:41:00.061Z,18.35
2023-03-07T06:43:27.932Z,14.63
2023-03-07T06:45:59.014Z,21.90
2023-03-07T06:50:09.092Z,20.75
2023-03-07T06:52:11.513Z,15.85
2023-03-07T06:58:42.633Z,13.70
2023-03-07T07:01:20.714Z,20.80
2023-03-07T07:03:51.194Z,15.65
2023-03-07T07:06:19.237Z,20.48
2023-03-07T07:08:48.027Z,19.90
2023-03-07T07:11:15.840Z,14.48
2023-03-07T07:13:45.681Z,10.23
2023-03-07T07:16:15.008Z,13.85
2023-03-07T07:18:42.536Z,18.48
2023-03-07T07:29:31.007Z,13.88
2023-03-07T07:32:00.281Z,10.05
2023-03-07T07:34:28.502Z,11.77
2023-03-07T07:50:36.014Z,11.02
2023-03-07T07:53:21.326Z,15.95
2023-03-07T07:55:49.658Z,13.65
2023-03-07T07:58:20.279Z,15.40
2023-03-07T08:00:48.784Z,9.30
2023-03-07T08:03:16.125Z,9.10
2023-03-07T08:05:48.682Z,15.73
2023-03-07T08:08:18.058Z,14.45
2023-03-07T08:10:49.161Z,10.90
2023-03-07T08:13:34.844Z,9.18
2023-03-07T08:16:15.001Z,11.50
2023-03-07T08:18:44.299Z,12.55
2023-03-07T08:21:13.456Z,11.68
2023-03-07T08:23:40.671Z,9.25
2023-03-07T08:26:10.473Z,8.90
2023-03-07T08:28:38.213Z,9.32
2023-03-07T08:31:14.812Z,12.63
2023-03-07T08:34:07.515Z,8.25
2023-03-07T08:36:35.482Z,9.27
2023-03-07T08:39:03.865Z,8.10
2023-03-07T08:42:54.964Z,10.32
2023-03-07T08:45:25.323Z,10.60
2023-03-07T08:47:54.748Z,12.43
2023-03-07T08:51:47.029Z,9.65
2023-03-07T08:54:20.220Z,10.40
2023-03-07T08:56:47.272Z,7.38
2023-03-07T09:00:09.728Z,9.32
2023-03-07T09:02:36.875Z,6.72
2023-03-07T09:05:06.985Z,10.27
2023-03-07T09:07:35.358Z,7.32
2023-03-07T09:10:02.540Z,8.65
2023-03-07T09:12:30.026Z,12.10
2023-03-07T09:14:58.446Z,7.22
2023-03-07T09:17:25.690Z,7.88
2023-03-07T09:19:52.775Z,8.20
2023-03-07T09:22:20.120Z,6.15
2023-03-07T09:24:47.162Z,6.15
2023-03-07T09:27:14.379Z,8.23
2023-03-07T09:29:41.482Z,8.40
2023-03-07T09:32:09.143Z,8.77
2023-03-07T09:34:36.523Z,6.93
2023-03-07T09:37:03.804Z,9.02
2023-03-07T09:39:31.870Z,8.38
2023-03-07T09:42:47.975Z,8.52
2023-03-07T09:45:40.470Z,5.88
2023-03-07T09:48:30.652Z,7.60
2023-03-07T09:51:24.277Z,6.93
2023-03-07T09:54:04.980Z,10.30
2023-03-07T09:57:40.496Z,11.63
2023-03-07T10:00:33.647Z,9.13
2023-03-07T10:03:38.189Z,8.75
2023-03-07T10:06:37.663Z,9.07
2023-03-07T10:09:18.725Z,7.20
2023-03-07T10:12:05.936Z,8.00
2023-03-07T10:15:03.626Z,7.95
2023-03-07T10:18:19.131Z,11.52
2023-03-07T10:21:09.434Z,8.23
2023-03-07T10:25:02.116Z,9.05
2023-03-07T10:27:44.971Z,11.32
2023-03-07T10:35:12.037Z,11.23
2023-03-07T10:38:05.194Z,10.50
2023-03-07T10:40:50.036Z,10.02
2023-03-07T10:43:33.873Z,11.32
2023-03-07T10:46:26.198Z,8.15
2023-03-07T10:49:09.875Z,8.52
2023-03-07T10:52:05.185Z,6.07
2023-03-07T10:54:38.890Z,13.32
2023-03-07T10:57:17.733Z,9.85
2023-03-07T10:59:50.511Z,9.60
2023-03-07T11:02:56.828Z,9.13
2023-03-07T11:07:00.266Z,8.85
2023-03-07T11:09:59.178Z,10.20
2023-03-07T11:12:46.471Z,10.73
2023-03-07T11:19:47.389Z,11.20
2023-03-07T11:22:36.741Z,10.15
2023-03-07T11:25:26.551Z,9.57
2023-03-07T11:27:57.013Z,7.80
2023-03-07T11:30:53.783Z,10.85
2023-03-07T11:33:52.977Z,8.68
2023-03-07T11:36:40.299Z,7.25
2023-03-07T11:39:46.056Z,7.38
2023-03-07T11:42:24.021Z,7.15
2023-03-07T11:45:17.667Z,8.48
2023-03-07T11:48:15.057Z,7.78
2023-03-07T11:50:50.803Z,10.65
2023-03-07T11:54:07.809Z,8.63
2023-03-07T11:56:47.001Z,9.55
2023-03-07T11:59:37.507Z,9.50
2023-03-07T12:02:30.234Z,12.82
2023-03-07T12:08:08.421Z,8.43
2023-03-07T12:10:58.788Z,10.55
2023-03-07T12:23:40.821Z,9.98
2023-03-07T12:26:28.865Z,8.23
2023-03-07T12:29:13.355Z,8.32
2023-03-07T12:32:16.417Z,8.85
2023-03-07T12:35:18.162Z,10.27
2023-03-07T12:46:11.554Z,8.75
2023-03-07T12:48:52.512Z,7.10
2023-03-07T12:56:15.413Z,10.60
2023-03-07T12:59:19.680Z,6.82
2023-03-07T13:02:40.761Z,7.50
2023-03-07T13:05:21.729Z,12.80
2023-03-07T13:07:53.733Z,9.00
2023-03-07T13:13:45.467Z,11.68
2023-03-07T13:16:37.704Z,16.92
2023-03-07T13:19:51.194Z,9.38
2023-03-07T13:22:18.272Z,7.65
2023-03-07T13:24:49.812Z,14.25
2023-03-07T13:27:29.802Z,10.38
2023-03-07T13:30:12.476Z,10.15
2023-03-07T13:35:28.283Z,8.18
2023-03-07T13:38:03.806Z,10.35
2023-03-07T13:40:39.663Z,10.10
2023-03-07T13:43:28.360Z,10.25
2023-03-07T13:46:06.807Z,13.00
2023-03-07T13:48:40.312Z,7.20
2023-03-07T13:51:09.559Z,9.40
2023-03-07T13:53:44.555Z,9.55
2023-03-07T13:56:20.425Z,9.43
2023-03-07T13:59:20.459Z,6.93
2023-03-07T14:02:04.208Z,9.40
2023-03-07T14:05:03.268Z,13.43
2023-03-07T14:07:37.447Z,7.57
2023-03-07T14:10:30.574Z,10.70
2023-03-07T14:13:33.706Z,7.75
2023-03-07T14:19:28.144Z,8.43
2023-03-07T14:22:43.595Z,8.05
2023-03-07T14:35:42.892Z,11.13
2023-03-07T14:38:32.204Z,8.77
2023-03-07T14:46:26.601Z,11.85
2023-03-07T14:49:35.836Z,12.00
2023-03-07T14:52:04.272Z,7.85
2023-03-07T14:54:37.436Z,6.80
2023-03-07T14:57:04.928Z,9.95
2023-03-07T14:59:32.022Z,9.93
2023-03-07T15:02:00.274Z,9.95
2023-03-07T15:04:32.725Z,9.80
2023-03-07T15:07:04.685Z,11.38
2023-03-07T15:09:35.277Z,6.80
2023-03-07T15:12:18.932Z,7.30
2023-03-07T15:14:59.727Z,10.57
2023-03-07T15:17:35.676Z,10.25
2023-03-07T15:20:15.137Z,8.88
2023-03-07T15:22:43.205Z,9.43
2023-03-07T15:25:25.785Z,9.20
2023-03-07T15:28:27.013Z,7.15
2023-03-07T15:30:55.802Z,6.90
2023-03-07T15:33:27.506Z,6.72
2023-03-07T15:36:11.362Z,8.70
2023-03-07T15:38:51.452Z,6.97
2023-03-07T15:41:36.346Z,8.15
2023-03-07T15:44:10.607Z,6.47
2023-03-07T15:46:45.719Z,7.95
2023-03-07T15:49:45.668Z,9.82
2023-03-07T15:52:33.033Z,6.10
2023-03-07T15:55:08.267Z,9.13
2023-03-07T15:57:56.112Z,6.25
2023-03-07T16:00:38.397Z,8.10
2023-03-07T16:03:32.679Z,9.93
2023-03-07T16:06:01.651Z,7.50
2023-03-07T16:08:29.028Z,7.78
2023-03-07T16:11:02.844Z,11.15
2023-03-07T16:13:38.979Z,6.80
2023-03-07T16:16:17.322Z,8.40
2023-03-07T16:18:44.584Z,6.90
2023-03-07T16:21:14.916Z,6.15
2023-03-07T16:23:43.907Z,6.60
2023-03-07T16:26:16.517Z,6.82
2023-03-07T16:28:48.033Z,7.25
2023-03-07T16:31:18.181Z,8.95
2023-03-07T16:33:47.187Z,8.30
2023-03-07T16:36:15.881Z,8.93
2023-03-07T16:38:43.891Z,9.00
2023-03-07T16:41:17.647Z,9.05
2023-03-07T16:43:51.592Z,8.52
2023-03-07T16:46:20.379Z,5.63
2023-03-07T16:48:48.548Z,5.50
2023-03-07T16:51:22.554Z,7.20
2023-03-07T16:53:53.107Z,9.07
2023-03-07T16:56:32.512Z,6.97
2023-03-07T16:59:01.642Z,11.27
2023-03-07T17:01:29.063Z,8.10
2023-03-07T17:03:57.582Z,7.65
2023-03-07T17:06:37.103Z,6.82
2023-03-07T17:09:06.930Z,8.05
2023-03-07T17:11:34.283Z,9.02
2023-03-07T17:14:06.098Z,8.68
2023-03-07T17:16:39.150Z,6.40
2023-03-07T17:19:07.986Z,4.57
2023-03-07T17:21:35.107Z,4.70
2023-03-07T17:24:08.541Z,4.38
2023-03-07T17:26:41.048Z,2.72
2023-03-07T17:31:42.115Z,3.03
2023-03-07T17:34:23.913Z,4.63
2023-03-07T17:36:51.179Z,4.97
2023-03-07T17:39:24.300Z,5.00
2023-03-07T17:41:51.862Z,9.07
2023-03-07T17:44:18.960Z,6.82
2023-03-07T17:46:47.758Z,5.63
2023-03-07T17:49:18.872Z,8.18
2023-03-07T17:51:46.762Z,6.10
2023-03-07T17:54:14.068Z,5.75
2023-03-07T17:56:41.344Z,8.07
2023-03-07T17:59:08.548Z,4.30
2023-03-07T18:01:36.019Z,7.47
2023-03-07T18:04:06.311Z,5.30
2023-03-07T18:06:38.415Z,7.28
2023-03-07T18:09:07.424Z,9.40
2023-03-07T18:11:35.584Z,10.95
2023-03-07T18:14:03.700Z,5.65
2023-03-07T18:16:31.434Z,5.45
2023-03-07T18:19:01.774Z,6.40
2023-03-07T18:21:30.531Z,4.97
2023-03-07T18:23:58.227Z,5.88
2023-03-07T18:26:39.513Z,5.45
2023-03-07T18:29:19.814Z,5.88
2023-03-07T18:31:47.981Z,4.97
2023-03-07T18:34:15.897Z,7.28
2023-03-07T18:36:43.948Z,5.65
2023-03-07T18:39:12.028Z,7.07
2023-03-07T18:41:41.190Z,4.90
2023-03-07T18:44:10.970Z,6.25
2023-03-07T18:46:38.354Z,6.55
2023-03-07T18:49:08.347Z,4.53
2023-03-07T18:51:35.780Z,5.03
2023-03-07T18:54:03.725Z,5.10
2023-03-07T18:56:31.076Z,5.80
2023-03-07T18:58:59.464Z,7.68
2023-03-07T19:01:32.520Z,3.72
2023-03-07T19:04:03.414Z,5.45
2023-03-07T19:06:45.087Z,4.32
2023-03-07T19:09:20.277Z,4.55
2023-03-07T19:11:47.664Z,2.55
2023-03-07T19:14:14.935Z,4.47
2023-03-07T19:16:42.286Z,4.03
2023-03-07T19:19:09.566Z,6.63
2023-03-07T19:21:37.016Z,4.38
2023-03-07T19:24:05.773Z,5.32
2023-03-07T19:26:35.493Z,4.10
2023-03-07T19:29:04.305Z,4.03
2023-03-07T19:31:33.062Z,5.03
2023-03-07T19:34:06.792Z,4.80
2023-03-07T19:36:35.521Z,3.72
2023-03-07T19:39:03.951Z,5.82
2023-03-07T19:41:31.945Z,5.88
2023-03-07T19:44:00.850Z,6.13
2023-03-07T19:46:30.369Z,4.40
2023-03-07T19:49:00.941Z,5.32
2023-03-07T19:51:28.041Z,7.13
2023-03-07T19:53:57.527Z,8.65
2023-03-07T19:56:30.644Z,6.22
2023-03-07T19:59:00.857Z,7.80
2023-03-07T20:01:30.001Z,10.02
2023-03-07T20:03:57.781Z,9.68
2023-03-07T20:06:31.068Z,5.63
2023-03-07T20:09:00.595Z,8.35
2023-03-07T20:11:31.695Z,6.82
2023-03-07T20:14:02.435Z,6.43
2023-03-07T20:16:29.742Z,5.93
2023-03-07T20:19:04.315Z,8.10
2023-03-07T20:21:35.752Z,6.68
2023-03-07T20:24:07.507Z,7.00
2023-03-07T20:26:37.797Z,8.15
2023-03-07T20:29:07.177Z,12.30
2023-03-07T20:31:34.370Z,10.45
2023-03-07T20:34:02.396Z,10.70
2023-03-07T20:36:35.870Z,8.40
2023-03-07T20:39:08.160Z,12.20
2023-03-07T20:41:36.382Z,13.45
2023-03-07T20:44:07.468Z,12.20
2023-03-07T20:46:38.894Z,9.13
2023-03-07T20:49:06.168Z,6.57
2023-03-07T20:51:36.205Z,10.40
2023-03-07T20:54:08.325Z,7.05
2023-03-07T20:56:38.061Z,8.45
2023-03-07T20:59:06.332Z,6.13
2023-03-07T21:01:35.947Z,5.20
2023-03-07T21:04:11.343Z,8.02
2023-03-07T21:06:44.563Z,8.32
2023-03-07T21:09:15.795Z,6.85
2023-03-07T21:11:46.999Z,9.15
2023-03-07T21:14:16.795Z,7.03
2023-03-07T21:16:44.471Z,6.88
2023-03-07T21:19:12.675Z,8.65
2023-03-07T21:21:40.710Z,8.75
2023-03-07T21:24:11.248Z,6.78
2023-03-07T21:26:42.244Z,5.97
2023-03-07T21:29:10.943Z,6.65
2023-03-07T21:31:38.833Z,8.00
2023-03-07T21:34:13.347Z,8.05
2023-03-07T21:36:41.082Z,6.45
2023-03-07T21:39:10.075Z,7.90
2023-03-07T21:41:37.609Z,6.43
2023-03-07T21:44:04.810Z,5.80
2023-03-07T21:46:32.173Z,4.90
2023-03-07T21:49:03.022Z,6.93
2023-03-07T21:51:30.281Z,6.25
2023-03-07T21:53:57.579Z,7.07
2023-03-07T21:56:26.381Z,9.48
2023-03-07T21:58:55.468Z,6.55
2023-03-07T22:01:27.428Z,7.65
2023-03-07T22:03:58.323Z,8.05
2023-03-07T22:06:26.710Z,7.97
2023-03-07T22:08:54.199Z,7.95
2023-03-07T22:11:22.087Z,7.22
2023-03-07T22:13:49.205Z,5.80
2023-03-07T22:16:23.212Z,8.52
2023-03-07T22:18:57.907Z,6.53
2023-03-07T22:21:26.696Z,5.72
2023-03-07T22:23:58.036Z,6.15
2023-03-07T22:26:27.039Z,9.03
2023-03-07T22:28:55.617Z,11.73
2023-03-07T22:31:24.110Z,8.32
2023-03-07T22:33:51.996Z,10.10
2023-03-07T22:36:19.736Z,10.82
2023-03-07T22:38:46.835Z,11.55
2023-03-07T22:41:17.523Z,12.98
2023-03-07T22:43:44.840Z,12.07
2023-03-07T22:46:12.220Z,9.82
2023-03-07T22:48:40.328Z,12.52
2023-03-07T22:54:25.240Z,12.57
2023-03-07T22:56:52.365Z,10.68
2023-03-07T22:59:19.728Z,11.57
2023-03-07T23:01:47.087Z,11.82
2023-03-07T23:04:14.477Z,11.13
2023-03-07T23:06:41.706Z,11.13
2023-03-07T23:09:09.643Z,13.50
2023-03-07T23:11:37.126Z,13.88
2023-03-07T23:14:04.670Z,14.82
2023-03-07T23:16:34.257Z,14.40
2023-03-07T23:19:02.768Z,16.27
2023-03-07T23:21:35.919Z,20.45
2023-03-07T23:24:04.191Z,16.25
2023-03-07T23:26:37.163Z,15.35
2023-03-07T23:29:07.415Z,16.50
2023-03-07T23:31:38.280Z,9.95
2023-03-07T23:34:13.302Z,8.50
2023-03-07T23:36:40.778Z,7.70
2023-03-07T23:39:08.428Z,9.07
2023-03-07T23:41:35.732Z,9.68
2023-03-07T23:44:04.323Z,8.88
2023-03-07T23:46:31.632Z,9.18
2023-03-07T23:48:59.138Z,9.68
2023-03-07T23:51:26.581Z,10.40
2023-03-07T23:53:53.809Z,9.40
2023-03-07T23:56:21.206Z,10.43
2023-03-07T23:58:55.505Z,8.70
